createdAt,value
2023-04-13T00:01:00.421Z,5.93
2023-04-13T00:03:31.039Z,6.20
2023-04-13T00:05:59.808Z,8.27
2023-04-13T00:08:30.785Z,7.20
2023-04-13T00:10:59.979Z,7.18
2023-04-13T00:13:28.716Z,7.85
2023-04-13T00:16:01.569Z,7.60
2023-04-13T00:18:31.473Z,6.10
2023-04-13T00:21:00.642Z,9.63
2023-04-13T00:23:29.374Z,6.47
2023-04-13T00:25:58.728Z,7.80
2023-04-13T00:28:28.289Z,9.30
2023-04-13T00:30:57.577Z,7.78
2023-04-13T00:33:27.949Z,6.97
2023-04-13T00:35:56.755Z,8.77
2023-04-13T00:38:27.502Z,7.05
2023-04-13T00:40:57.520Z,7.70
2023-04-13T00:43:26.519Z,7.43
2023-04-13T00:45:55.433Z,8.80
2023-04-13T00:48:25.029Z,6.32
2023-04-13T00:50:55.537Z,9.40
2023-04-13T00:53:24.840Z,6.80
2023-04-13T00:55:54.095Z,8.05
2023-04-13T00:58:23.305Z,7.32
2023-04-13T01:00:52.012Z,8.35
2023-04-13T01:03:21.593Z,7.85
2023-04-13T01:06:08.289Z,8.13
2023-04-13T01:08:45.728Z,7.88
2023-04-13T01:11:27.930Z,9.13
2023-04-13T01:14:07.244Z,7.47
2023-04-13T01:16:43.921Z,7.28
2023-04-13T01:19:29.793Z,7.45
2023-04-13T01:22:00.958Z,6.75
2023-04-13T01:24:46.063Z,7.90
2023-04-13T01:27:20.559Z,7.18
2023-04-13T01:29:52.497Z,6.60
2023-04-13T01:32:21.917Z,7.40
2023-04-13T01:34:51.340Z,8.55
2023-04-13T01:37:21.016Z,7.05
2023-04-13T01:39:49.744Z,8.38
2023-04-13T01:42:18.658Z,7.55
2023-04-13T01:44:47.517Z,9.88
2023-04-13T01:47:24.020Z,7.57
2023-04-13T01:50:04.721Z,7.35
2023-04-13T01:52:36.315Z,7.30
2023-04-13T01:55:08.033Z,6.85
2023-04-13T01:57:40.245Z,6.72
2023-04-13T02:00:13.329Z,7.25
2023-04-13T02:02:45.400Z,7.72
2023-04-13T02:05:14.368Z,7.30
2023-04-13T02:07:46.040Z,6.95
2023-04-13T02:10:16.365Z,8.23
2023-04-13T02:12:45.050Z,7.60
2023-04-13T02:15:13.837Z,7.43
2023-04-13T02:17:45.065Z,7.22
2023-04-13T02:20:14.667Z,7.38
2023-04-13T02:22:44.136Z,6.35
2023-04-13T02:25:15.559Z,6.85
2023-04-13T02:27:45.665Z,7.45
2023-04-13T02:30:14.654Z,6.90
2023-04-13T02:32:49.592Z,6.45
2023-04-13T02:35:18.705Z,6.65
2023-04-13T02:37:48.978Z,9.13
2023-04-13T02:40:17.865Z,7.75
2023-04-13T02:42:47.109Z,6.63
2023-04-13T02:45:18.099Z,6.78
2023-04-13T02:47:48.427Z,6.70
2023-04-13T02:50:17.433Z,9.55
2023-04-13T02:52:46.972Z,7.50
2023-04-13T02:55:16.017Z,7.57
2023-04-13T02:57:44.866Z,6.68
2023-04-13T03:00:16.208Z,7.20
2023-04-13T03:02:45.181Z,7.15
2023-04-13T03:05:15.520Z,7.05
2023-04-13T03:07:45.504Z,6.32
2023-04-13T03:10:14.423Z,6.70
2023-04-13T03:12:44.952Z,6.40
2023-04-13T03:15:14.988Z,10.90
2023-04-13T03:17:44.189Z,6.93
2023-04-13T03:20:16.817Z,8.27
2023-04-13T03:22:46.158Z,9.18
2023-04-13T03:25:14.869Z,8.77
2023-04-13T03:27:43.619Z,6.85
2023-04-13T03:30:13.623Z,6.82
2023-04-13T03:32:42.514Z,6.75
2023-04-13T03:35:11.426Z,7.68
2023-04-13T03:37:43.081Z,7.10
2023-04-13T03:40:13.033Z,9.00
2023-04-13T03:42:41.783Z,10.55
2023-04-13T03:45:12.233Z,7.10
2023-04-13T03:47:41.503Z,9.23
2023-04-13T03:50:11.554Z,8.30
2023-04-13T03:52:42.752Z,6.55
2023-04-13T03:55:11.938Z,8.20
2023-04-13T03:57:41.074Z,7.30
2023-04-13T04:00:35.099Z,6.18
2023-04-13T04:03:04.052Z,6.10
2023-04-13T04:05:32.961Z,8.52
2023-04-13T04:08:03.659Z,6.35
2023-04-13T04:10:32.726Z,6.47
2023-04-13T04:13:01.532Z,6.53
2023-04-13T04:15:30.225Z,6.13
2023-04-13T04:17:59.274Z,7.97
2023-04-13T04:20:28.607Z,6.50
2023-04-13T04:23:01.102Z,6.03
2023-04-13T04:25:31.820Z,6.22
2023-04-13T04:28:02.511Z,7.13
2023-04-13T04:30:34.039Z,8.18
2023-04-13T04:33:03.174Z,6.43
2023-04-13T04:35:34.469Z,6.45
2023-04-13T04:38:05.409Z,6.22
2023-04-13T04:40:36.796Z,6.28
2023-04-13T04:43:06.079Z,6.28
2023-04-13T04:45:36.393Z,5.85
2023-04-13T04:48:05.958Z,6.30
2023-04-13T04:50:35.054Z,6.20
2023-04-13T04:53:03.926Z,8.15
2023-04-13T04:55:34.409Z,9.60
2023-04-13T04:58:03.322Z,10.30
2023-04-13T05:00:32.364Z,9.02
2023-04-13T05:03:02.294Z,7.95
2023-04-13T05:05:31.735Z,6.88
2023-04-13T05:08:01.665Z,7.05
2023-04-13T05:10:30.596Z,6.20
2023-04-13T05:13:03.294Z,6.55
2023-04-13T05:15:32.281Z,7.22
2023-04-13T05:18:01.276Z,6.93
2023-04-13T05:20:32.282Z,9.25
2023-04-13T05:23:03.677Z,7.68
2023-04-13T05:25:32.846Z,7.40
2023-04-13T05:28:03.214Z,8.40
2023-04-13T05:30:34.555Z,8.63
2023-04-13T05:33:05.941Z,9.20
2023-04-13T05:35:37.243Z,9.20
2023-04-13T05:38:06.376Z,9.07
2023-04-13T05:40:35.468Z,8.90
2023-04-13T05:43:05.793Z,7.72
2023-04-13T05:45:34.642Z,7.90
2023-04-13T05:48:04.925Z,8.05
2023-04-13T05:50:34.095Z,8.45
2023-04-13T05:53:02.962Z,7.82
2023-04-13T05:55:31.846Z,12.07
2023-04-13T05:58:01.894Z,8.40
2023-04-13T06:00:32.837Z,8.07
2023-04-13T06:03:02.517Z,9.32
2023-04-13T06:05:33.130Z,9.20
2023-04-13T06:08:02.475Z,9.60
2023-04-13T06:10:31.467Z,14.57
2023-04-13T06:13:00.166Z,12.68
2023-04-13T06:15:29.026Z,9.20
2023-04-13T06:17:59.383Z,9.40
2023-04-13T06:20:28.556Z,8.23
2023-04-13T06:22:57.436Z,8.90
2023-04-13T06:25:26.240Z,8.77
2023-04-13T06:27:55.520Z,9.60
2023-04-13T06:30:24.637Z,9.02
2023-04-13T06:32:53.601Z,9.07
2023-04-13T06:35:23.790Z,10.13
2023-04-13T06:37:52.965Z,10.80
2023-04-13T06:40:23.443Z,9.00
2023-04-13T06:42:52.511Z,10.60
2023-04-13T06:45:22.733Z,9.82
2023-04-13T06:47:54.344Z,9.32
2023-04-13T06:50:24.878Z,8.90
2023-04-13T06:52:53.851Z,8.95
2023-04-13T06:55:22.991Z,8.82
2023-04-13T06:57:51.924Z,7.75
2023-04-13T07:00:29.713Z,8.18
2023-04-13T07:03:00.089Z,10.25
2023-04-13T07:05:30.755Z,8.27
2023-04-13T07:07:59.809Z,8.98
2023-04-13T07:10:28.802Z,7.55
2023-04-13T07:12:57.802Z,6.63
2023-04-13T07:15:26.733Z,9.50
2023-04-13T07:17:56.167Z,6.57
2023-04-13T07:20:25.192Z,5.70
2023-04-13T07:22:55.495Z,4.78
2023-04-13T07:25:24.409Z,3.80
2023-04-13T07:27:53.288Z,3.30
2023-04-13T07:30:22.464Z,4.13
2023-04-13T07:32:51.336Z,4.50
2023-04-13T07:35:20.746Z,3.30
2023-04-13T07:37:52.155Z,2.88
2023-04-13T07:40:23.174Z,3.17
2023-04-13T07:42:52.521Z,3.70
2023-04-13T07:45:21.824Z,4.07
2023-04-13T07:47:53.657Z,3.85
2023-04-13T07:50:23.281Z,4.05
2023-04-13T07:52:52.587Z,4.07
2023-04-13T07:55:23.180Z,3.40
2023-04-13T07:57:52.139Z,4.47
2023-04-13T08:00:23.202Z,4.35
2023-04-13T08:02:52.496Z,3.90
2023-04-13T08:05:21.706Z,4.03
2023-04-13T08:07:50.823Z,3.38
2023-04-13T08:10:19.802Z,3.97
2023-04-13T08:12:50.024Z,3.65
2023-04-13T08:15:19.564Z,3.30
2023-04-13T08:17:49.072Z,3.65
2023-04-13T08:20:18.682Z,3.22
2023-04-13T08:22:47.764Z,3.40
2023-04-13T08:25:17.604Z,3.42
2023-04-13T08:27:46.556Z,3.22
2023-04-13T08:30:17.406Z,3.00
2023-04-13T08:32:46.606Z,3.60
2023-04-13T08:35:15.919Z,3.50
2023-04-13T08:37:44.825Z,10.40
2023-04-13T08:40:14.327Z,3.13
2023-04-13T08:42:43.313Z,1.92
2023-04-13T08:45:14.482Z,2.20
2023-04-13T08:47:44.812Z,2.38
2023-04-13T08:50:15.390Z,2.25
2023-04-13T08:52:44.333Z,2.25
2023-04-13T08:55:15.834Z,2.40
2023-04-13T08:57:46.273Z,2.17
2023-04-13T09:00:18.390Z,1.95
2023-04-13T09:03:03.814Z,2.00
2023-04-13T09:05:41.574Z,2.15
2023-04-13T09:08:14.317Z,2.05
2023-04-13T09:10:43.946Z,2.25
2023-04-13T09:13:12.867Z,2.17
2023-04-13T09:15:42.998Z,3.72
2023-04-13T09:18:13.866Z,2.22
2023-04-13T09:20:43.101Z,2.00
2023-04-13T09:23:17.226Z,2.13
2023-04-13T09:25:47.243Z,4.53
2023-04-13T09:28:19.790Z,4.15
2023-04-13T09:30:48.886Z,3.20
2023-04-13T09:33:19.326Z,2.97
2023-04-13T09:35:48.182Z,3.42
2023-04-13T09:38:17.816Z,4.45
2023-04-13T09:40:50.562Z,5.13
2023-04-13T09:43:19.587Z,5.38
2023-04-13T09:45:48.510Z,7.60
2023-04-13T09:48:23.739Z,7.50
2023-04-13T09:51:04.491Z,10.80
2023-04-13T09:53:42.670Z,10.02
2023-04-13T09:56:11.499Z,10.43
2023-04-13T09:58:45.719Z,9.27
2023-04-13T10:01:15.802Z,8.57
2023-04-13T10:03:46.410Z,6.55
2023-04-13T10:06:15.559Z,7.50
2023-04-13T10:08:46.489Z,5.30
2023-04-13T10:11:16.677Z,4.72
2023-04-13T10:13:53.361Z,3.00
2023-04-13T10:16:54.052Z,1.40
2023-04-13T10:19:29.715Z,1.00
2023-04-13T10:22:00.137Z,0.90
2023-04-13T10:24:30.166Z,1.30
2023-04-13T10:27:01.840Z,0.55
2023-04-13T10:29:32.865Z,0.65
2023-04-13T10:32:05.289Z,1.10
2023-04-13T10:34:38.371Z,0.80
2023-04-13T10:37:19.730Z,0.40
2023-04-13T10:39:49.433Z,0.40
2023-04-13T10:42:18.384Z,0.40
2023-04-13T10:44:49.668Z,0.70
2023-04-13T10:47:20.719Z,0.40
2023-04-13T10:49:52.370Z,0.60
2023-04-13T10:52:24.223Z,0.47
2023-04-13T10:54:54.508Z,0.45
2023-04-13T10:57:23.403Z,0.50
2023-04-13T10:59:58.041Z,0.82
2023-04-13T11:02:33.272Z,0.98
2023-04-13T11:05:04.485Z,0.93
2023-04-13T11:07:33.754Z,0.45
2023-04-13T11:10:03.548Z,2.60
2023-04-13T11:12:33.167Z,0.70
2023-04-13T11:15:02.174Z,0.52
2023-04-13T11:17:31.110Z,0.60
2023-04-13T11:20:05.835Z,1.35
2023-04-13T11:22:37.478Z,0.57
2023-04-13T11:25:10.965Z,0.50
2023-04-13T11:27:40.991Z,1.40
2023-04-13T11:30:11.320Z,1.20
2023-04-13T11:32:43.780Z,0.52
2023-04-13T11:35:17.945Z,0.45
2023-04-13T11:37:51.163Z,0.90
2023-04-13T11:40:23.780Z,0.80
2023-04-13T11:42:54.692Z,1.23
2023-04-13T11:45:27.205Z,2.20
2023-04-13T11:47:58.815Z,1.45
2023-04-13T11:50:29.561Z,0.38
2023-04-13T11:52:59.236Z,2.15
2023-04-13T11:55:30.095Z,5.78
2023-04-13T11:57:59.924Z,1.33
2023-04-13T12:00:29.960Z,0.70
2023-04-13T12:03:02.626Z,0.70
2023-04-13T12:05:34.800Z,1.00
2023-04-13T12:08:05.103Z,1.17
2023-04-13T12:10:45.254Z,1.40
2023-04-13T12:13:35.328Z,2.85
2023-04-13T12:16:11.627Z,0.85
2023-04-13T12:18:49.771Z,0.65
2023-04-13T12:21:26.364Z,1.30
2023-04-13T12:24:28.789Z,0.70
2023-04-13T12:27:18.516Z,0.95
2023-04-13T12:29:49.169Z,0.90
2023-04-13T12:32:20.308Z,0.60
2023-04-13T12:34:49.272Z,0.60
2023-04-13T12:37:19.611Z,0.85
2023-04-13T12:39:48.657Z,0.50
2023-04-13T12:42:17.788Z,0.57
2023-04-13T12:44:46.806Z,0.50
2023-04-13T12:47:15.843Z,0.60
2023-04-13T12:49:44.634Z,0.57
2023-04-13T12:52:13.381Z,0.88
2023-04-13T12:54:43.652Z,0.60
2023-04-13T12:57:15.538Z,0.65
2023-04-13T12:59:46.801Z,0.70
2023-04-13T13:02:26.806Z,0.63
2023-04-13T13:04:57.387Z,1.13
2023-04-13T13:07:34.450Z,1.00
2023-04-13T13:10:29.122Z,0.80
2023-04-13T13:13:07.612Z,0.80
2023-04-13T13:15:38.891Z,0.70
2023-04-13T13:18:09.191Z,0.70
2023-04-13T13:20:41.508Z,0.75
2023-04-13T13:23:12.472Z,0.73
2023-04-13T13:26:23.217Z,0.70
2023-04-13T13:28:56.753Z,0.75
2023-04-13T13:31:27.539Z,0.50
2023-04-13T13:33:56.653Z,0.80
2023-04-13T13:36:30.831Z,0.70
2023-04-13T13:39:02.596Z,0.60
2023-04-13T13:41:35.802Z,0.80
2023-04-13T13:44:07.241Z,0.55
2023-04-13T13:46:40.416Z,1.73
2023-04-13T13:49:09.654Z,1.23
2023-04-13T13:51:38.536Z,1.80
2023-04-13T13:54:07.540Z,0.80
2023-04-13T13:56:39.117Z,1.05
2023-04-13T13:59:08.811Z,0.80
2023-04-13T14:01:37.968Z,0.75
2023-04-13T14:04:07.420Z,0.70
2023-04-13T14:06:36.433Z,1.08
2023-04-13T14:09:06.710Z,0.75
2023-04-13T14:11:37.554Z,1.17
2023-04-13T14:14:18.154Z,0.50
2023-04-13T14:16:50.660Z,1.02
2023-04-13T14:19:20.942Z,2.25
2023-04-13T14:21:50.496Z,1.65
2023-04-13T14:24:19.300Z,0.88
2023-04-13T14:26:49.952Z,0.82
2023-04-13T14:29:19.112Z,1.30
2023-04-13T14:31:48.161Z,1.48
2023-04-13T14:34:17.106Z,1.13
2023-04-13T14:36:47.731Z,1.42
2023-04-13T14:39:18.232Z,1.20
2023-04-13T14:41:48.861Z,0.77
2023-04-13T14:44:17.699Z,1.60
2023-04-13T14:46:46.727Z,0.60
2023-04-13T14:49:17.982Z,1.08
2023-04-13T14:51:46.904Z,2.70
2023-04-13T14:54:15.759Z,1.17
2023-04-13T14:56:44.568Z,2.53
2023-04-13T14:59:14.792Z,1.10
2023-04-13T15:01:43.902Z,2.75
2023-04-13T15:04:17.096Z,1.10
2023-04-13T15:06:54.497Z,1.58
2023-04-13T15:09:23.743Z,2.17
2023-04-13T15:11:59.224Z,2.20
2023-04-13T15:14:29.838Z,1.17
2023-04-13T15:17:00.302Z,6.18
2023-04-13T15:19:31.744Z,3.58
2023-04-13T15:22:00.754Z,11.23
2023-04-13T15:24:29.727Z,6.75
2023-04-13T15:26:58.889Z,4.28
2023-04-13T15:29:29.332Z,10.43
2023-04-13T15:32:00.066Z,3.25
2023-04-13T15:34:28.956Z,9.05
2023-04-13T15:36:59.529Z,2.03
2023-04-13T15:39:28.636Z,2.08
2023-04-13T15:41:59.817Z,1.77
2023-04-13T15:44:30.427Z,1.25
2023-04-13T15:47:01.710Z,1.02
2023-04-13T15:49:33.469Z,1.42
2023-04-13T15:52:02.385Z,0.90
2023-04-13T15:54:31.446Z,1.00
2023-04-13T15:57:00.838Z,1.20
2023-04-13T15:59:35.162Z,1.20
2023-04-13T16:02:04.654Z,1.27
2023-04-13T16:04:33.965Z,1.20
2023-04-13T16:07:12.828Z,1.52
2023-04-13T16:09:45.825Z,1.20
2023-04-13T16:12:14.940Z,3.13
2023-04-13T16:14:45.981Z,2.47
2023-04-13T16:17:16.122Z,1.52
2023-04-13T16:19:47.038Z,2.55
2023-04-13T16:22:16.264Z,3.17
2023-04-13T16:24:45.056Z,1.60
2023-04-13T16:27:13.911Z,1.50
2023-04-13T16:29:45.407Z,1.38
2023-04-13T16:32:14.399Z,2.55
2023-04-13T16:34:43.289Z,1.50
2023-04-13T16:37:13.493Z,1.52
2023-04-13T16:39:44.453Z,2.38
2023-04-13T16:42:13.554Z,2.15
2023-04-13T16:44:42.330Z,1.73
2023-04-13T16:47:12.773Z,8.20
2023-04-13T16:49:41.760Z,7.35
2023-04-13T16:52:11.474Z,2.88
2023-04-13T16:54:44.700Z,1.38
2023-04-13T16:57:13.918Z,1.00
2023-04-13T16:59:43.133Z,1.20
2023-04-13T17:02:30.214Z,1.33
2023-04-13T17:05:01.300Z,0.93
2023-04-13T17:07:30.428Z,1.33
2023-04-13T17:09:59.376Z,1.15
2023-04-13T17:12:28.683Z,1.00
2023-04-13T17:14:58.446Z,1.45
2023-04-13T17:17:29.140Z,0.98
2023-04-13T17:19:58.049Z,1.10
2023-04-13T17:22:26.966Z,1.38
2023-04-13T17:24:56.723Z,1.33
2023-04-13T17:27:26.908Z,1.58
2023-04-13T17:29:55.968Z,1.98
2023-04-13T17:32:25.044Z,1.35
2023-04-13T17:34:57.049Z,1.30
2023-04-13T17:37:25.960Z,1.45
2023-04-13T17:39:54.923Z,1.80
2023-04-13T17:42:24.316Z,1.75
2023-04-13T17:44:53.398Z,3.85
2023-04-13T17:47:24.395Z,2.92
2023-04-13T17:49:55.171Z,3.83
2023-04-13T17:52:24.055Z,2.22
2023-04-13T17:54:52.946Z,2.22
2023-04-13T17:57:21.867Z,1.80
2023-04-13T17:59:50.788Z,2.55
2023-04-13T18:02:20.469Z,1.77
2023-04-13T18:04:49.696Z,1.73
2023-04-13T18:07:21.908Z,1.80
2023-04-13T18:09:50.696Z,2.67
2023-04-13T18:12:19.765Z,2.15
2023-04-13T18:14:48.797Z,2.00
2023-04-13T18:17:17.801Z,2.38
2023-04-13T18:19:47.076Z,1.80
2023-04-13T18:22:15.860Z,1.52
2023-04-13T18:24:46.425Z,1.52
2023-04-13T18:27:15.454Z,2.25
2023-04-13T18:29:45.223Z,1.52
2023-04-13T18:32:17.068Z,2.67
2023-04-13T18:34:46.095Z,9.32
2023-04-13T18:37:14.922Z,3.58
2023-04-13T18:39:46.206Z,2.38
2023-04-13T18:42:15.200Z,1.83
2023-04-13T18:44:44.006Z,1.88
2023-04-13T18:47:12.779Z,2.00
2023-04-13T18:49:42.153Z,3.25
2023-04-13T18:52:11.064Z,2.13
2023-04-13T18:54:41.041Z,1.90
2023-04-13T18:57:11.338Z,1.70
2023-04-13T18:59:40.747Z,2.67
2023-04-13T19:02:09.976Z,2.25
2023-04-13T19:04:40.486Z,2.35
2023-04-13T19:07:09.908Z,2.08
2023-04-13T19:09:39.637Z,1.80
2023-04-13T19:12:10.560Z,2.20
2023-04-13T19:14:39.450Z,2.50
2023-04-13T19:17:08.556Z,2.30
2023-04-13T19:19:37.487Z,2.38
2023-04-13T19:22:06.611Z,2.65
2023-04-13T19:24:35.486Z,2.67
2023-04-13T19:27:04.226Z,2.83
2023-04-13T19:29:36.176Z,2.60
2023-04-13T19:32:05.256Z,2.80
2023-04-13T19:34:34.258Z,3.47
2023-04-13T19:37:03.242Z,7.30
2023-04-13T19:39:32.264Z,5.07
2023-04-13T19:42:01.135Z,2.65
2023-04-13T19:44:30.034Z,3.30
2023-04-13T19:47:02.075Z,2.97
2023-04-13T19:49:30.844Z,3.00
2023-04-13T19:51:59.709Z,2.92
2023-04-13T19:54:28.591Z,3.45
2023-04-13T19:56:57.570Z,4.20
2023-04-13T19:59:26.413Z,2.97
2023-04-13T20:01:55.324Z,3.85
2023-04-13T20:04:26.070Z,3.30
2023-04-13T20:06:56.209Z,3.22
2023-04-13T20:09:25.581Z,3.35
2023-04-13T20:11:54.723Z,3.15
2023-04-13T20:14:23.852Z,3.20
2023-04-13T20:16:52.853Z,3.42
2023-04-13T20:19:22.972Z,4.25
2023-04-13T20:22:10.284Z,3.63
2023-04-13T20:24:39.124Z,3.10
2023-04-13T20:27:10.158Z,3.28
2023-04-13T20:29:38.930Z,3.75
2023-04-13T20:32:08.345Z,3.83
2023-04-13T20:34:37.861Z,3.70
2023-04-13T20:37:09.928Z,3.53
2023-04-13T20:39:49.835Z,3.70
2023-04-13T20:42:19.494Z,4.05
2023-04-13T20:44:49.346Z,4.15
2023-04-13T20:47:18.833Z,4.28
2023-04-13T20:49:52.143Z,4.40
2023-04-13T20:52:23.654Z,4.45
2023-04-13T20:54:53.439Z,3.83
2023-04-13T20:57:22.570Z,5.30
2023-04-13T20:59:52.866Z,6.88
2023-04-13T21:02:22.161Z,8.20
2023-04-13T21:04:51.218Z,5.65
2023-04-13T21:07:22.434Z,4.75
2023-04-13T21:09:51.358Z,3.97
2023-04-13T21:12:20.275Z,4.05
2023-04-13T21:14:49.362Z,4.60
2023-04-13T21:17:18.263Z,4.15
2023-04-13T21:19:47.160Z,4.65
2023-04-13T21:22:18.523Z,6.70
2023-04-13T21:24:48.785Z,4.82
2023-04-13T21:27:18.509Z,4.25
2023-04-13T21:29:47.433Z,4.05
2023-04-13T21:32:16.466Z,4.15
2023-04-13T21:34:45.491Z,4.95
2023-04-13T21:37:14.494Z,8.93
2023-04-13T21:39:43.682Z,5.40
2023-04-13T21:42:14.493Z,4.30
2023-04-13T21:44:43.808Z,4.32
2023-04-13T21:47:12.726Z,4.88
2023-04-13T21:49:42.757Z,5.03
2023-04-13T21:52:11.880Z,5.55
2023-04-13T21:54:40.872Z,4.85
2023-04-13T21:57:10.459Z,5.50
2023-04-13T21:59:42.024Z,5.88
2023-04-13T22:02:11.445Z,5.88
2023-04-13T22:04:40.590Z,5.35
2023-04-13T22:07:09.469Z,5.90
2023-04-13T22:09:38.328Z,5.25
2023-04-13T22:12:07.412Z,5.63
2023-04-13T22:14:36.448Z,8.13
2023-04-13T22:17:06.905Z,6.65
2023-04-13T22:19:35.818Z,6.43
2023-04-13T22:22:04.639Z,5.70
2023-04-13T22:24:33.642Z,5.30
2023-04-13T22:27:04.239Z,5.30
2023-04-13T22:29:33.550Z,5.40
2023-04-13T22:32:02.651Z,5.07
2023-04-13T22:34:34.658Z,5.30
2023-04-13T22:37:05.023Z,5.40
2023-04-13T22:39:34.112Z,4.90
2023-04-13T22:42:02.928Z,5.15
2023-04-13T22:44:34.800Z,5.15
2023-04-13T22:47:04.694Z,4.85
2023-04-13T22:49:35.019Z,5.07
2023-04-13T22:52:03.865Z,5.03
2023-04-13T22:54:33.664Z,4.88
2023-04-13T22:57:04.684Z,4.65
2023-04-13T22:59:34.318Z,4.70
2023-04-13T23:02:04.046Z,5.20
2023-04-13T23:04:34.716Z,5.05
2023-04-13T23:07:03.847Z,4.90
2023-04-13T23:09:32.844Z,5.20
2023-04-13T23:12:01.893Z,4.35
2023-04-13T23:14:31.003Z,3.83
2023-04-13T23:17:00.384Z,3.95
2023-04-13T23:19:29.408Z,4.43
2023-04-13T23:21:59.747Z,4.30
2023-04-13T23:24:29.413Z,4.57
2023-04-13T23:26:58.498Z,4.50
2023-04-13T23:29:27.392Z,4.10
2023-04-13T23:31:57.559Z,4.70
2023-04-13T23:34:26.405Z,5.50
2023-04-13T23:36:55.139Z,7.07
2023-04-13T23:39:25.282Z,5.13
2023-04-13T23:41:54.403Z,4.78
2023-04-13T23:44:23.358Z,5.30
2023-04-13T23:46:52.520Z,4.55
2023-04-13T23:49:21.868Z,4.65
2023-04-13T23:51:50.995Z,5.30
2023-04-13T23:54:20.095Z,4.90
2023-04-13T23:56:50.724Z,4.65
2023-04-13T23:59:19.914Z,4.45
